Welcome!

Visit our other weather sites:

Template documentation
and downloads

And another site



There are no active watches, warnings or advisories

Nearby METAR Reports

   
KAVP - Albrightsville, PA
Updated: Feb 27 2020 10:54 pm
Overcast  
Overcast  
   Wind: WSW 12.7 mph<br />Gust to 12.7 mph
Wind: WSW 12.7 mph
Gust to 12.7 mph
Temperature: 26.6°F
Wind Chill: 15.8°F
Dew Point: 12.2°F
Humidity: 54%
Barometer: 29.75 inHg
Clouds: Overcast
Visibility: 10 mi
Cloud details: Mostly Cloudy 1219 m,
Overcast 1463 m
KAVP 280454Z 24011G21KT 10SM BKN040 OVC048 M03/M11 A2975 RMK AO2 PK WND 25026/0355 SLP083 T10281111 400671033
KIWA - Apache Junction, AZ
Updated: Feb 27 2020 10:50 pm
Clear  
Clear  
   Wind: SSE 3.5 mph
Wind: SSE 3.5 mph
Temperature: 55.4°F
Dew Point: 37.4°F
Humidity: 51%
Barometer: 30.24 inHg
Clouds: Clear
Visibility: 10 mi
Cloud details: Clear
KIWA 280450Z 16003KT 10SM SKC 13/03 A3024
KPKB - Blue Rock, OH
Updated: Feb 27 2020 10:53 pm
Overcast  
Overcast  
   Wind: WSW 9.2 mph
Wind: WSW 9.2 mph
Temperature: 30.2°F
Wind Chill: 21.2°F
Dew Point: 17.6°F
Humidity: 59%
Barometer: 30.01 inHg
Clouds: Overcast
Visibility: 10 mi
Cloud details: Few Clouds 1158 m,
Mostly Cloudy 1494 m,
Overcast 1829 m
KPKB 280453Z AUTO 25008KT 10SM FEW038 BKN049 OVC060 M01/M08 A3001 RMK AO2 SLP169 T10111078 400001039
KHVN - Branford, CT
Updated: Feb 27 2020 10:53 pm
Partly Cloudy  
Partly Cloudy  
   Wind: WSW 15 mph<br />Gust to 15 mph
Wind: WSW 15 mph
Gust to 15 mph
Temperature: 33.8°F
Wind Chill: 24.8°F
Dew Point: 14°F
Humidity: 44%
Barometer: 29.76 inHg
Clouds: Partly Cloudy
Visibility: 10 mi
Cloud details: Partly Cloudy 2134 m
KHVN 280453Z AUTO 24013G22KT 220V280 10SM SCT070 01/M10 A2976 RMK AO2 PK WND 25027/0410 SLP076 T00111100 400940011
KPHX - Carefree, AZ
Updated: Feb 27 2020 10:51 pm
Mostly Cloudy  
Mostly Cloudy  
   Wind: WSW 3.5 mph
Wind: WSW 3.5 mph
Temperature: 62.6°F
Dew Point: 33.8°F
Humidity: 34%
Barometer: 30.2 inHg
Clouds: Mostly Cloudy
Visibility: 10 mi
Cloud details: Mostly Cloudy 7620 m
KPHX 280451Z 25003KT 10SM BKN250 17/01 A3020 RMK AO2 SLP219 T01720011
 

Script developed by  Saratoga-weather.org Adapted for the template by  Weerstation Leuven